Time;durP1;ratioP1;P1;durP2;ratioP2;P2;SDS_P1;SDS_P2;PMS_P1;PMS_P2;Temp;Humidity;BMP_temperature;BMP_pressure;BME280_temperature;BME280_humidity;BME280_pressure;Samples;Min_cycle;Max_cycle;Signal;HPM_P1;HPM_P2
2022/04/18 08:25:27;;;;;;;7.65;5.47;;;;;;;;;;6518290;19;3245333;-14
2022/04/18 08:28:34;;;;;;;8.48;6.03;;;;;;;;;;7356464;19;162542;-14
2022/04/18 08:31:05;;;;;;;6.73;5.97;;;;;;;;;;7363052;19;154115;-14
2022/04/18 08:34:03;;;;;;;7.15;5.18;;;;;;;;;;7363420;19;153783;-14
2022/04/18 08:36:35;;;;;;;6.47;5.70;;;;;;;;;;7362191;19;161852;-14
2022/04/18 08:39:11;;;;;;;8.52;5.90;;;;;;;;;;7361996;19;162357;-14
2022/04/18 08:42:02;;;;;;;6.07;5.50;;;;;;;;;;7362762;19;154149;-12
2022/04/18 08:44:42;;;;;;;6.70;6.07;;;;;;;;;;7362239;19;153583;-13
2022/04/18 08:52:43;;;;;;;5.65;5.07;;;;;;;;;;7360834;19;162040;-13
2022/04/18 08:52:53;;;;;;;7.50;5.32;;;;;;;;;;7362057;19;154243;-12
2022/04/18 08:55:35;;;;;;;8.00;6.05;;;;;;;;;;7362346;19;153979;-14
2022/04/18 08:58:27;;;;;;;7.15;6.22;;;;;;;;;;7354596;19;162091;-13
2022/04/18 09:01:01;;;;;;;6.15;5.53;;;;;;;;;;7331431;19;162505;-13
2022/04/18 09:03:55;;;;;;;6.88;6.18;;;;;;;;;;7331712;19;153932;-13
2022/04/18 09:06:41;;;;;;;6.57;5.57;;;;;;;;;;7332290;19;153585;-13
2022/04/18 09:09:31;;;;;;;6.32;5.75;;;;;;;;;;7330908;19;161907;-13
2022/04/18 09:12:21;;;;;;;6.70;6.07;;;;;;;;;;7332440;19;162672;-14
2022/04/18 09:15:32;;;;;;;5.90;5.30;;;;;;;;;;7333029;19;154322;-14
2022/04/18 09:18:13;;;;;;;6.22;5.45;;;;;;;;;;7331053;19;153560;-13
2022/04/18 09:20:59;;;;;;;6.70;6.10;;;;;;;;;;7330412;19;162603;-13
2022/04/18 09:23:37;;;;;;;6.68;6.07;;;;;;;;;;7332441;19;162434;-13
2022/04/18 09:26:31;;;;;;;5.68;5.18;;;;;;;;;;7332967;19;154079;-14
2022/04/18 09:29:08;;;;;;;;;;;;;;;;;;7331229;19;153496;-14
2022/04/18 09:31:44;;;;;;;7.55;5.72;;;;;;;;;;7332397;19;162216;-14
2022/04/18 09:34:32;;;;;;;6.43;5.60;;;;;;;;;;7332551;19;162418;-14
2022/04/18 09:37:18;;;;;;;6.43;5.55;;;;;;;;;;7331979;19;153929;-14
2022/04/18 09:39:55;;;;;;;6.05;5.55;;;;;;;;;;7330403;19;153702;-14
2022/04/18 09:42:29;;;;;;;6.90;5.40;;;;;;;;;;7331079;19;162207;-17
2022/04/18 09:45:26;;;;;;;5.80;5.20;;;;;;;;;;7332411;19;162783;-14
2022/04/18 09:48:02;;;;;;;6.07;5.55;;;;;;;;;;7332586;19;154138;-14
2022/04/18 09:53:27;;;;;;;6.43;5.82;;;;;;;;;;7331714;19;162036;-14
2022/04/18 09:55:59;;;;;;;8.30;5.60;;;;;;;;;;7332812;19;162358;-14
2022/04/18 09:58:33;;;;;;;5.47;4.97;;;;;;;;;;7332021;19;154045;-12
2022/04/18 10:01:25;;;;;;;5.70;5.20;;;;;;;;;;7332289;19;153552;-14
2022/04/18 10:03:59;;;;;;;5.13;4.72;;;;;;;;;;7332493;19;161791;-14
2022/04/18 10:06:30;;;;;;;5.50;4.72;;;;;;;;;;7332455;19;162387;-12
2022/04/18 10:09:02;;;;;;;6.00;4.68;;;;;;;;;;7331324;19;154092;-14
2022/04/18 10:11:33;;;;;;;5.80;5.20;;;;;;;;;;7330246;19;153523;-14
2022/04/18 10:14:05;;;;;;;5.32;4.85;;;;;;;;;;7332314;19;161817;-14
2022/04/18 10:16:37;;;;;;;5.00;4.60;;;;;;;;;;7331566;19;162374;-14
2022/04/18 10:19:20;;;;;;;5.68;5.07;;;;;;;;;;7332792;19;154186;-14
2022/04/18 10:21:54;;;;;;;;;;;;;;;;;;7332958;19;153532;-14
2022/04/18 10:24:51;;;;;;;5.72;5.00;;;;;;;;;;7329913;19;162066;-14
2022/04/18 10:28:01;;;;;;;5.43;4.72;;;;;;;;;;7331126;19;162622;-14
2022/04/18 10:30:39;;;;;;;4.85;4.40;;;;;;;;;;7332247;19;154001;-14
2022/04/18 10:33:12;;;;;;;4.90;4.50;;;;;;;;;;7332259;19;153691;-14
2022/04/18 10:35:55;;;;;;;5.15;4.75;;;;;;;;;;7330492;19;162161;-14
2022/04/18 10:38:27;;;;;;;;;;;;;;;;;;7331686;19;162370;-14
2022/04/18 10:41:14;;;;;;;4.93;4.43;;;;;;;;;;7330463;19;154351;-14
2022/04/18 10:44:00;;;;;;;4.63;4.25;;;;;;;;;;7331761;19;153770;-14
2022/04/18 10:46:32;;;;;;;4.72;4.32;;;;;;;;;;7330459;19;161837;-14
2022/04/18 10:49:05;;;;;;;4.95;4.43;;;;;;;;;;7328813;19;162576;-14
2022/04/18 10:51:41;;;;;;;7.88;4.07;;;;;;;;;;7331698;19;153938;-14
2022/04/18 10:54:14;;;;;;;4.45;4.05;;;;;;;;;;7331658;19;153516;-14
2022/04/18 10:56:51;;;;;;;4.88;4.47;;;;;;;;;;7331283;19;161885;-14
2022/04/18 10:59:24;;;;;;;4.35;3.95;;;;;;;;;;7331094;19;162413;-14
2022/04/18 11:01:57;;;;;;;4.35;3.97;;;;;;;;;;7330501;19;153925;-14
2022/04/18 11:04:30;;;;;;;4.53;4.13;;;;;;;;;;7330575;19;153561;-14
2022/04/18 11:07:07;;;;;;;4.03;3.72;;;;;;;;;;7330600;19;161809;-14
2022/04/18 11:09:40;;;;;;;4.40;4.00;;;;;;;;;;7329433;19;162361;-14
2022/04/18 11:12:15;;;;;;;6.03;4.28;;;;;;;;;;7330686;19;153886;-14
2022/04/18 11:14:55;;;;;;;4.72;4.03;;;;;;;;;;7331072;19;153778;-14
2022/04/18 11:17:29;;;;;;;5.00;4.22;;;;;;;;;;7330204;19;161983;-14
2022/04/18 11:20:21;;;;;;;5.55;4.25;;;;;;;;;;7329019;19;162320;-14
2022/04/18 11:23:26;;;;;;;4.57;4.10;;;;;;;;;;7329065;19;153954;-14
2022/04/18 11:26:00;;;;;;;4.15;3.72;;;;;;;;;;7325617;19;153792;-14
2022/04/18 11:28:36;;;;;;;4.28;3.88;;;;;;;;;;7330090;19;161855;-14
2022/04/18 11:31:12;;;;;;;4.20;3.85;;;;;;;;;;7330020;19;162361;-14
2022/04/18 11:33:44;;;;;;;4.72;3.90;;;;;;;;;;7330258;19;154081;-14
2022/04/18 11:36:16;;;;;;;4.88;3.70;;;;;;;;;;7329802;19;153536;-14
2022/04/18 11:38:50;;;;;;;4.20;3.78;;;;;;;;;;7329527;19;161833;-14
2022/04/18 11:41:21;;;;;;;4.35;3.90;;;;;;;;;;7328186;19;162432;-14
2022/04/18 11:44:00;;;;;;;3.67;3.38;;;;;;;;;;7330133;19;154142;-14
2022/04/18 11:46:32;;;;;;;4.13;3.47;;;;;;;;;;7329798;19;153656;-14
2022/04/18 11:49:03;;;;;;;4.00;3.65;;;;;;;;;;7329107;19;161804;-14
2022/04/18 11:51:41;;;;;;;4.35;3.80;;;;;;;;;;7328013;19;162345;-14
2022/04/18 11:54:15;;;;;;;4.20;3.72;;;;;;;;;;7329731;19;154297;-14
2022/04/18 11:56:58;;;;;;;3.75;3.45;;;;;;;;;;7329227;19;153462;-14
2022/04/18 11:59:30;;;;;;;4.68;3.63;;;;;;;;;;7328943;19;161803;-14
2022/04/18 12:07:34;;;;;;;5.40;3.63;;;;;;;;;;7328545;19;153600;-16
2022/04/18 12:10:20;;;;;;;;;;;;;;;;;;7327303;19;161838;-14
2022/04/18 12:12:54;;;;;;;4.03;3.63;;;;;;;;;;7328914;19;162701;-14
2022/04/18 12:15:26;;;;;;;3.92;3.63;;;;;;;;;;7328494;19;154051;-14
2022/04/18 12:18:00;;;;;;;3.83;3.47;;;;;;;;;;7328991;19;153529;-20
2022/04/18 12:20:32;;;;;;;3.90;3.50;;;;;;;;;;7327364;19;161939;-14
2022/04/18 12:23:04;;;;;;;3.88;3.58;;;;;;;;;;7327399;19;162424;-14
2022/04/18 12:25:36;;;;;;;4.00;3.70;;;;;;;;;;7325546;19;153995;-14
2022/04/18 12:28:10;;;;;;;3.92;3.63;;;;;;;;;;7328501;19;153523;-14
2022/04/18 12:30:42;;;;;;;3.80;3.50;;;;;;;;;;7326287;19;161541;-14
2022/04/18 12:33:14;;;;;;;4.25;3.88;;;;;;;;;;7327960;19;162361;-14
2022/04/18 12:35:46;;;;;;;5.13;3.97;;;;;;;;;;7335339;19;153878;-14
2022/04/18 12:38:19;;;;;;;4.50;3.60;;;;;;;;;;7335329;19;153553;-14
2022/04/18 12:40:58;;;;;;;4.05;3.65;;;;;;;;;;7335053;19;161781;-14
2022/04/18 12:43:35;;;;;;;3.35;3.08;;;;;;;;;;7334896;19;162430;-14
2022/04/18 12:46:10;;;;;;;3.50;3.17;;;;;;;;;;7333711;19;154031;-14
2022/04/18 12:48:42;;;;;;;3.72;3.42;;;;;;;;;;7335044;19;153715;-14
2022/04/18 12:51:13;;;;;;;3.65;3.35;;;;;;;;;;7332455;19;162186;-14
2022/04/18 12:53:49;;;;;;;3.00;2.80;;;;;;;;;;7334064;19;162504;-14
2022/04/18 12:56:23;;;;;;;3.30;3.05;;;;;;;;;;7334638;19;154119;-14
2022/04/18 12:59:07;;;;;;;3.83;3.42;;;;;;;;;;7333981;19;154080;-14
2022/04/18 13:01:40;;;;;;;3.75;3.45;;;;;;;;;;7332109;19;161950;-14
2022/04/18 13:04:22;;;;;;;3.63;3.35;;;;;;;;;;7333457;19;162541;-13
2022/04/18 13:07:02;;;;;;;4.68;4.28;;;;;;;;;;7332674;19;153931;-13
2022/04/18 13:09:33;;;;;;;5.72;5.10;;;;;;;;;;7334270;19;154121;-13
2022/04/18 13:12:06;;;;;;;9.15;5.93;;;;;;;;;;7330462;19;162021;-14
2022/04/18 13:15:03;;;;;;;7.43;5.22;;;;;;;;;;7333881;19;162551;-17
2022/04/18 13:17:35;;;;;;;5.13;4.70;;;;;;;;;;7332549;19;153944;-14
2022/04/18 13:20:08;;;;;;;12.10;5.57;;;;;;;;;;7334175;19;153619;-16
2022/04/18 13:22:39;;;;;;;13.82;5.25;;;;;;;;;;7333517;19;161838;-17
2022/04/18 13:25:12;;;;;;;7.50;4.65;;;;;;;;;;7330601;19;162349;-15
2022/04/18 13:27:43;;;;;;;5.88;4.35;;;;;;;;;;7331519;19;154011;-17
2022/04/18 13:30:17;;;;;;;6.15;4.35;;;;;;;;;;7332295;19;153526;-16
2022/04/18 13:32:48;;;;;;;70.38;25.67;;;;;;;;;;7331686;19;162294;-15
2022/04/18 13:35:21;;;;;;;77.43;26.20;;;;;;;;;;7332699;19;162488;-18
2022/04/18 13:37:53;;;;;;;136.07;43.35;;;;;;;;;;7333585;19;154102;-16
2022/04/18 13:40:24;;;;;;;138.00;49.53;;;;;;;;;;7333501;19;153578;-16
2022/04/18 13:42:55;;;;;;;145.27;49.78;;;;;;;;;;7332521;19;161505;-16
2022/04/18 13:45:29;;;;;;;146.98;48.33;;;;;;;;;;7332861;19;162321;-15
2022/04/18 13:48:00;;;;;;;128.18;44.15;;;;;;;;;;7333451;19;153941;-15
2022/04/18 13:50:31;;;;;;;120.60;40.88;;;;;;;;;;7331472;19;153806;-15
2022/04/18 13:53:04;;;;;;;103.97;37.90;;;;;;;;;;7332694;19;161571;-16
2022/04/18 13:55:36;;;;;;;100.97;36.67;;;;;;;;;;7332614;19;162561;-16
2022/04/18 13:58:11;;;;;;;100.80;38.70;;;;;;;;;;7333031;19;153829;-14
2022/04/18 14:00:46;;;;;;;92.13;35.17;;;;;;;;;;7332989;19;153661;-14
2022/04/18 14:03:17;;;;;;;90.57;33.03;;;;;;;;;;7332773;19;161708;-21
2022/04/18 14:05:48;;;;;;;87.35;32.03;;;;;;;;;;7332551;19;162328;-16
2022/04/18 14:08:19;;;;;;;83.95;32.70;;;;;;;;;;7332922;19;153960;-14
2022/04/18 14:10:51;;;;;;;81.18;33.45;;;;;;;;;;7332174;19;153613;-16
2022/04/18 14:13:22;;;;;;;90.32;32.83;;;;;;;;;;7332378;19;162152;-16
2022/04/18 14:21:24;;;;;;;85.55;32.80;;;;;;;;;;7332033;19;153649;-15
2022/04/18 14:23:55;;;;;;;78.32;31.63;;;;;;;;;;7328637;19;161756;-15
2022/04/18 14:26:26;;;;;;;75.32;31.40;;;;;;;;;;7331538;19;162354;-17
2022/04/18 14:28:58;;;;;;;87.13;33.05;;;;;;;;;;7330983;19;154120;-15
2022/04/18 14:31:32;;;;;;;69.50;30.23;;;;;;;;;;7330882;19;153618;-15
2022/04/18 14:34:03;;;;;;;66.60;28.48;;;;;;;;;;7331609;19;161990;-15
2022/04/18 14:36:34;;;;;;;78.60;30.42;;;;;;;;;;7330657;19;162372;-16
2022/04/18 14:39:06;;;;;;;77.68;29.75;;;;;;;;;;7330271;19;154009;-16
2022/04/18 14:41:37;;;;;;;63.22;27.30;;;;;;;;;;7331575;19;153779;-14
2022/04/18 14:44:09;;;;;;;69.85;28.00;;;;;;;;;;7330175;19;161826;-17
2022/04/18 14:46:42;;;;;;;66.53;28.55;;;;;;;;;;7331156;19;162661;-16
2022/04/18 14:49:14;;;;;;;61.50;28.58;;;;;;;;;;7331466;19;154074;-14
2022/04/18 14:51:45;;;;;;;66.25;28.73;;;;;;;;;;7330236;19;153571;-15
2022/04/18 14:54:16;;;;;;;57.97;25.70;;;;;;;;;;7331042;19;162080;-14
2022/04/18 14:56:48;;;;;;;56.47;22.45;;;;;;;;;;7329317;19;162491;-15
2022/04/18 14:59:19;;;;;;;64.90;26.02;;;;;;;;;;7330452;19;153947;-14
2022/04/18 15:01:53;;;;;;;59.55;25.33;;;;;;;;;;7330785;19;153611;-16
2022/04/18 15:04:24;;;;;;;59.80;27.58;;;;;;;;;;7330186;19;161635;-15
2022/04/18 15:06:55;;;;;;;53.80;24.42;;;;;;;;;;7329558;19;162212;-15
2022/04/18 15:09:26;;;;;;;55.03;26.88;;;;;;;;;;7330700;19;154215;-14
2022/04/18 15:11:57;;;;;;;56.60;25.20;;;;;;;;;;7329499;19;153897;-15
2022/04/18 15:14:29;;;;;;;59.75;24.15;;;;;;;;;;7329265;19;161773;-14
2022/04/18 15:17:03;;;;;;;49.80;25.23;;;;;;;;;;7328974;19;162454;-16
2022/04/18 15:19:34;;;;;;;57.30;24.67;;;;;;;;;;7330763;19;153990;-14
2022/04/18 15:22:07;;;;;;;61.25;25.20;;;;;;;;;;7330313;19;153760;-15
2022/04/18 15:24:40;;;;;;;57.17;23.13;;;;;;;;;;7328623;19;161957;-16
2022/04/18 15:27:11;;;;;;;51.40;23.90;;;;;;;;;;7329995;19;162454;-15
2022/04/18 15:29:43;;;;;;;51.28;22.35;;;;;;;;;;7328948;19;153969;-15
2022/04/18 15:32:17;;;;;;;48.40;21.50;;;;;;;;;;7328673;19;153896;-16
2022/04/18 15:34:51;;;;;;;52.28;23.42;;;;;;;;;;7329443;19;162232;-14
2022/04/18 15:37:22;;;;;;;53.00;23.45;;;;;;;;;;7328784;19;162418;-16
2022/04/18 15:39:54;;;;;;;49.38;21.98;;;;;;;;;;7329744;19;153927;-15
2022/04/18 15:42:25;;;;;;;51.17;24.03;;;;;;;;;;7329219;19;153638;-14
2022/04/18 15:44:58;;;;;;;52.08;22.88;;;;;;;;;;7329567;19;161799;-14
2022/04/18 15:47:32;;;;;;;;;;;;;;;;;;7328994;19;162442;-16
2022/04/18 15:50:03;;;;;;;50.45;22.55;;;;;;;;;;7329812;19;154228;-15
2022/04/18 15:52:34;;;;;;;50.03;22.48;;;;;;;;;;7328267;19;153958;-15
2022/04/18 15:55:05;;;;;;;43.75;19.60;;;;;;;;;;7328133;19;161870;-16
2022/04/18 15:57:37;;;;;;;40.88;19.42;;;;;;;;;;7329217;19;162575;-16
2022/04/18 16:00:09;;;;;;;43.78;20.25;;;;;;;;;;7329374;19;154114;-16
2022/04/18 16:02:44;;;;;;;44.50;20.48;;;;;;;;;;7329173;19;153833;-15
2022/04/18 16:05:15;;;;;;;41.28;19.35;;;;;;;;;;7328761;19;162134;-15
2022/04/18 16:07:46;;;;;;;44.22;21.38;;;;;;;;;;7328535;19;162505;-15
2022/04/18 16:10:17;;;;;;;41.15;19.65;;;;;;;;;;7334350;19;153802;-15
2022/04/18 16:12:48;;;;;;;44.30;16.48;;;;;;;;;;7334597;19;153581;-16
2022/04/18 16:15:20;;;;;;;36.83;15.10;;;;;;;;;;7335297;19;162003;-18
2022/04/18 16:17:54;;;;;;;30.77;14.02;;;;;;;;;;7335290;19;162337;-15
2022/04/18 16:20:25;;;;;;;28.30;14.05;;;;;;;;;;7335390;19;154174;-16
2022/04/18 16:22:57;;;;;;;34.35;14.05;;;;;;;;;;7335369;19;153360;-16
2022/04/18 16:25:29;;;;;;;32.05;13.70;;;;;;;;;;7333174;19;161823;-15
2022/04/18 16:28:00;;;;;;;34.57;13.30;;;;;;;;;;7335235;19;162570;-15
2022/04/18 16:33:31;;;;;;;29.48;13.77;;;;;;;;;;7333652;19;153572;-16
2022/04/18 16:36:03;;;;;;;28.60;13.38;;;;;;;;;;7334752;19;161809;-16
2022/04/18 16:38:34;;;;;;;27.65;13.25;;;;;;;;;;7335027;19;162031;-17
2022/04/18 16:46:36;;;;;;;24.42;11.85;;;;;;;;;;7334561;19;162072;-16
2022/04/18 16:49:10;;;;;;;29.02;12.75;;;;;;;;;;7334390;19;162622;-15
2022/04/18 16:51:44;;;;;;;26.17;12.02;;;;;;;;;;7334783;19;153978;-16
2022/04/18 16:54:15;;;;;;;28.05;12.70;;;;;;;;;;7332036;19;153623;-15
2022/04/18 16:56:46;;;;;;;27.45;12.15;;;;;;;;;;7333965;19;161854;-15
2022/04/18 16:59:18;;;;;;;29.38;11.98;;;;;;;;;;7333969;19;162343;-16
2022/04/18 17:01:49;;;;;;;20.73;11.02;;;;;;;;;;7333153;19;153888;-14
2022/04/18 17:04:23;;;;;;;23.02;10.95;;;;;;;;;;7334271;19;153495;-16
2022/04/18 17:06:54;;;;;;;21.67;10.98;;;;;;;;;;7333924;19;161849;-21
2022/04/18 17:09:25;;;;;;;22.75;10.27;;;;;;;;;;7333593;19;162526;-15
2022/04/18 17:11:57;;;;;;;21.90;10.73;;;;;;;;;;7334323;19;153966;-16
2022/04/18 17:14:29;;;;;;;20.05;10.48;;;;;;;;;;7332278;19;153770;-16
2022/04/18 17:17:00;;;;;;;21.73;9.70;;;;;;;;;;7333807;19;161876;-14
2022/04/18 17:19:34;;;;;;;19.25;9.52;;;;;;;;;;7332754;19;162406;-14
2022/04/18 17:22:06;;;;;;;18.48;9.35;;;;;;;;;;7334282;19;153955;-16
2022/04/18 17:24:37;;;;;;;20.02;9.32;;;;;;;;;;7332709;19;153557;-16
2022/04/18 17:27:10;;;;;;;20.63;9.65;;;;;;;;;;7333459;19;161565;-16
2022/04/18 17:29:41;;;;;;;;;;;;;;;;;;7334101;19;162353;-14
2022/04/18 17:32:14;;;;;;;16.52;8.52;;;;;;;;;;7334170;19;154114;-14
2022/04/18 17:34:48;;;;;;;;;;;;;;;;;;7332250;19;153746;-14
2022/04/18 17:37:19;;;;;;;16.83;8.85;;;;;;;;;;7333582;19;162028;-15
2022/04/18 17:39:51;;;;;;;18.08;8.02;;;;;;;;;;7332138;19;162519;-14
2022/04/18 17:42:22;;;;;;;14.52;7.93;;;;;;;;;;7333612;19;154035;-15
2022/04/18 17:44:53;;;;;;;17.92;7.63;;;;;;;;;;7333694;19;153649;-15
2022/04/18 17:47:25;;;;;;;15.13;8.18;;;;;;;;;;7333243;19;161970;-18
2022/04/18 17:49:59;;;;;;;14.07;7.32;;;;;;;;;;7332989;19;162319;-14
2022/04/18 17:52:31;;;;;;;15.60;7.35;;;;;;;;;;7333507;19;154036;-13
2022/04/18 17:57:47;;;;;;;16.17;7.45;;;;;;;;;;7331874;19;161690;-16
2022/04/18 18:00:19;;;;;;;13.95;6.63;;;;;;;;;;7332166;19;162340;-14
2022/04/18 18:02:50;;;;;;;10.83;7.03;;;;;;;;;;7333325;19;154106;-14
2022/04/18 18:05:25;;;;;;;16.30;7.15;;;;;;;;;;7332899;19;153956;-17
2022/04/18 18:07:56;;;;;;;16.73;6.75;;;;;;;;;;7331402;19;161813;-16
2022/04/18 18:10:28;;;;;;;9.98;6.55;;;;;;;;;;7331182;19;162430;-15
2022/04/18 18:12:59;;;;;;;12.65;6.82;;;;;;;;;;7332944;19;154077;-14
2022/04/18 18:15:30;;;;;;;16.67;6.28;;;;;;;;;;7329987;19;153537;-13
2022/04/18 18:18:01;;;;;;;9.35;5.00;;;;;;;;;;7332081;19;161765;-16
2022/04/18 18:20:37;;;;;;;11.55;6.18;;;;;;;;;;7331019;19;162815;-17
2022/04/18 18:23:08;;;;;;;13.98;6.68;;;;;;;;;;7332578;19;153949;-14
2022/04/18 18:25:41;;;;;;;9.68;5.32;;;;;;;;;;7329614;19;153568;-14
2022/04/18 18:28:12;;;;;;;10.45;6.07;;;;;;;;;;7331617;19;162498;-15
2022/04/18 18:30:44;;;;;;;9.85;5.18;;;;;;;;;;7331753;19;162325;-16
2022/04/18 18:33:17;;;;;;;8.00;4.88;;;;;;;;;;7330569;19;154205;-15
2022/04/18 18:35:52;;;;;;;11.43;5.07;;;;;;;;;;7329134;19;153667;-14
2022/04/18 18:38:24;;;;;;;12.45;5.53;;;;;;;;;;7331682;19;161982;-16
2022/04/18 18:40:55;;;;;;;9.52;4.80;;;;;;;;;;7330976;19;162286;-13
2022/04/18 18:43:27;;;;;;;10.57;5.65;;;;;;;;;;7331996;19;153936;-15
2022/04/18 18:46:01;;;;;;;12.68;5.60;;;;;;;;;;7331683;19;153665;-17
2022/04/18 18:48:35;;;;;;;7.85;4.65;;;;;;;;;;7331456;19;161878;-15
2022/04/18 18:53:53;;;;;;;11.50;4.70;;;;;;;;;;7330721;19;154028;-15
2022/04/18 18:56:25;;;;;;;11.95;5.50;;;;;;;;;;7330266;19;153653;-15
2022/04/18 18:58:56;;;;;;;18.98;6.40;;;;;;;;;;7331109;19;161801;-17
2022/04/18 19:01:27;;;;;;;17.02;6.72;;;;;;;;;;7329895;19;162084;-15
2022/04/18 19:03:59;;;;;;;12.32;6.50;;;;;;;;;;7330999;19;153954;-14
2022/04/18 19:06:33;;;;;;;15.90;5.47;;;;;;;;;;7331190;19;154038;-15
2022/04/18 19:09:04;;;;;;;10.13;5.47;;;;;;;;;;7330502;19;161762;-14
2022/04/18 19:11:36;;;;;;;13.60;5.20;;;;;;;;;;7330793;19;162430;-14
2022/04/18 19:14:08;;;;;;;9.57;4.60;;;;;;;;;;7330769;19;154221;-15
2022/04/18 19:27:39;;;;;;;9.27;3.35;;;;;;;;;;7330708;19;153520;-15
2022/04/18 19:30:11;;;;;;;8.15;3.97;;;;;;;;;;7329289;19;161839;-15
2022/04/18 19:32:44;;;;;;;10.52;4.20;;;;;;;;;;7330356;19;162329;-15
2022/04/18 19:35:16;;;;;;;8.38;3.85;;;;;;;;;;7329310;19;154125;-13
2022/04/18 19:37:50;;;;;;;7.50;3.67;;;;;;;;;;7329215;19;153826;-14
2022/04/18 19:40:21;;;;;;;12.95;3.95;;;;;;;;;;7329464;19;161925;-14
2022/04/18 19:42:53;;;;;;;11.73;3.70;;;;;;;;;;7329477;19;162166;-16
2022/04/18 19:45:24;;;;;;;7.30;3.40;;;;;;;;;;7329366;19;154255;-16
2022/04/18 19:47:55;;;;;;;10.40;3.83;;;;;;;;;;7329571;19;153527;-18
2022/04/18 19:50:28;;;;;;;6.80;3.30;;;;;;;;;;7327886;19;161935;-16
2022/04/18 19:53:03;;;;;;;8.23;3.57;;;;;;;;;;7329240;19;162464;-18
2022/04/18 19:55:34;;;;;;;9.32;3.95;;;;;;;;;;7327956;19;154360;-15
2022/04/18 19:58:06;;;;;;;7.05;3.78;;;;;;;;;;7329114;19;153519;-17
2022/04/18 20:00:37;;;;;;;12.48;3.70;;;;;;;;;;7329389;19;161748;-15
2022/04/18 20:03:08;;;;;;;11.20;3.85;;;;;;;;;;7327744;19;162251;-16
2022/04/18 20:05:40;;;;;;;10.73;4.15;;;;;;;;;;7329426;19;154316;-16
2022/04/18 20:08:16;;;;;;;10.80;3.55;;;;;;;;;;7329442;19;153605;-16
2022/04/18 20:10:47;;;;;;;7.38;3.60;;;;;;;;;;7328830;19;161902;-18
2022/04/18 20:13:19;;;;;;;12.23;3.55;;;;;;;;;;7328346;19;162399;-15
2022/04/18 20:15:50;;;;;;;11.80;3.33;;;;;;;;;;7327603;19;153986;-15
2022/04/18 20:18:27;;;;;;;5.10;2.85;;;;;;;;;;7329217;19;153747;-17
2022/04/18 20:21:00;;;;;;;5.70;2.80;;;;;;;;;;7327878;19;161788;-17
2022/04/18 20:23:36;;;;;;;18.65;3.60;;;;;;;;;;7326644;19;162331;-15
2022/04/18 20:26:09;;;;;;;11.63;3.03;;;;;;;;;;7324759;19;154207;-16
2022/04/18 20:28:40;;;;;;;14.88;3.88;;;;;;;;;;7328163;19;153653;-17
2022/04/18 20:31:11;;;;;;;9.82;3.35;;;;;;;;;;7326545;19;161975;-15
2022/04/18 20:33:43;;;;;;;10.80;2.42;;;;;;;;;;7327570;19;162242;-16
2022/04/18 20:36:15;;;;;;;7.97;2.40;;;;;;;;;;7325095;19;154016;-14
2022/04/18 20:38:49;;;;;;;5.97;2.50;;;;;;;;;;7326568;19;153521;-15
2022/04/18 20:41:21;;;;;;;4.90;2.25;;;;;;;;;;7326585;19;161984;-16
2022/04/18 20:43:53;;;;;;;8.20;2.30;;;;;;;;;;7327310;19;162689;-15
2022/04/18 20:46:24;;;;;;;5.03;2.15;;;;;;;;;;7327487;19;154315;-16
2022/04/18 20:48:55;;;;;;;11.75;2.67;;;;;;;;;;7286121;19;153610;-15
2022/04/18 20:51:27;;;;;;;8.10;1.90;;;;;;;;;;7322241;19;161793;-14
2022/04/18 20:59:28;;;;;;;9.40;2.65;;;;;;;;;;7333727;19;153680;-13
2022/04/18 21:02:00;;;;;;;;;;;;;;;;;;7327349;19;162048;-13
2022/04/18 21:04:32;;;;;;;5.53;2.13;;;;;;;;;;7330163;19;162683;-13
2022/04/18 21:07:03;;;;;;;9.43;2.50;;;;;;;;;;7331961;19;154181;-13
2022/04/18 21:09:37;;;;;;;6.43;2.78;;;;;;;;;;7333972;19;153546;-14
2022/04/18 21:12:10;;;;;;;7.30;2.40;;;;;;;;;;7328035;19;162014;-14
2022/04/18 21:14:41;;;;;;;5.80;2.20;;;;;;;;;;7262402;19;162520;-15
2022/04/18 21:17:13;;;;;;;4.63;1.83;;;;;;;;;;7324940;19;155256;-15
2022/04/18 21:19:49;;;;;;;6.77;2.00;;;;;;;;;;7332120;19;153554;-14
2022/04/18 21:22:23;;;;;;;5.88;2.05;;;;;;;;;;7331555;19;162176;-14
2022/04/18 21:25:01;;;;;;;4.95;2.03;;;;;;;;;;7329733;19;162621;-14
2022/04/18 21:27:32;;;;;;;4.97;1.70;;;;;;;;;;7332937;19;153983;-14
2022/04/18 21:30:06;;;;;;;3.25;1.58;;;;;;;;;;7331978;19;153574;-14
2022/04/18 21:32:38;;;;;;;5.07;2.13;;;;;;;;;;7331181;19;161934;-16
2022/04/18 21:35:10;;;;;;;6.28;2.40;;;;;;;;;;7325392;19;162418;-14
2022/04/18 21:37:41;;;;;;;5.17;1.80;;;;;;;;;;7330046;19;153834;-14
2022/04/18 21:40:17;;;;;;;5.70;1.85;;;;;;;;;;7331012;19;154285;-13
2022/04/18 21:42:48;;;;;;;6.05;1.52;;;;;;;;;;7330068;19;161937;-13
2022/04/18 21:45:21;;;;;;;3.80;1.90;;;;;;;;;;7329614;19;162329;-14
2022/04/18 21:47:53;;;;;;;5.85;1.58;;;;;;;;;;7331894;19;154003;-14
2022/04/18 21:50:25;;;;;;;3.47;1.87;;;;;;;;;;7332161;19;153509;-14
2022/04/18 21:53:00;;;;;;;4.97;1.80;;;;;;;;;;7331787;19;161746;-14
2022/04/18 21:55:36;;;;;;;6.65;2.28;;;;;;;;;;7328144;19;162590;-14
2022/04/18 21:58:08;;;;;;;3.90;1.60;;;;;;;;;;7329763;19;154104;-14
2022/04/18 22:01:03;;;;;;;2.90;1.60;;;;;;;;;;7331228;19;153773;-13
2022/04/18 22:03:35;;;;;;;3.80;1.60;;;;;;;;;;7332048;19;161923;-14
2022/04/18 22:06:06;;;;;;;2.60;1.40;;;;;;;;;;7331745;19;162453;-14
2022/04/18 22:08:37;;;;;;;2.45;1.50;;;;;;;;;;7332223;19;154031;-14
2022/04/18 22:11:11;;;;;;;4.53;1.77;;;;;;;;;;7329992;19;153513;-14
2022/04/18 22:13:42;;;;;;;4.20;1.55;;;;;;;;;;7331309;19;161931;-13
2022/04/18 22:16:13;;;;;;;2.65;1.80;;;;;;;;;;7329359;19;162344;-14
2022/04/18 22:24:53;;;;;;;2.78;1.50;;;;;;;;;;7332030;19;154182;-13
2022/04/18 22:27:17;;;;;;;4.63;1.83;;;;;;;;;;7330974;19;162350;-14
2022/04/18 22:29:49;;;;;;;4.28;1.83;;;;;;;;;;7331559;19;153996;-14
2022/04/18 22:32:21;;;;;;;4.25;1.80;;;;;;;;;;7331940;19;153674;-14
2022/04/18 22:34:52;;;;;;;3.80;1.55;;;;;;;;;;7330487;19;161812;-14
2022/04/18 22:37:24;;;;;;;4.28;1.80;;;;;;;;;;7328978;19;162546;-14
2022/04/18 22:39:57;;;;;;;2.63;1.70;;;;;;;;;;7330430;19;154108;-14
2022/04/18 22:42:30;;;;;;;3.60;1.48;;;;;;;;;;7331960;19;153583;-14
2022/04/18 22:45:01;;;;;;;2.42;1.67;;;;;;;;;;7330189;19;161861;-14
2022/04/18 22:47:33;;;;;;;3.75;2.00;;;;;;;;;;7329826;19;162593;-14
2022/04/18 22:50:08;;;;;;;3.10;1.65;;;;;;;;;;7330421;19;154303;-14
2022/04/18 22:52:40;;;;;;;3.78;1.60;;;;;;;;;;7331455;19;153880;-14
2022/04/18 22:55:13;;;;;;;5.07;1.58;;;;;;;;;;7331055;19;162052;-14
2022/04/18 22:57:48;;;;;;;3.20;1.77;;;;;;;;;;7328992;19;162650;-14
2022/04/18 23:00:20;;;;;;;5.80;1.85;;;;;;;;;;7331242;19;154255;-14
2022/04/18 23:02:52;;;;;;;5.00;2.00;;;;;;;;;;7331157;19;153650;-15
2022/04/18 23:08:07;;;;;;;2.58;1.40;;;;;;;;;;7330540;19;162526;-14
2022/04/18 23:10:39;;;;;;;3.40;1.65;;;;;;;;;;7327907;19;154022;-14
2022/04/18 23:13:13;;;;;;;3.45;1.80;;;;;;;;;;7328609;19;153518;-14
2022/04/18 23:15:44;;;;;;;3.60;1.60;;;;;;;;;;7326114;19;161991;-14
2022/04/18 23:18:15;;;;;;;3.03;1.30;;;;;;;;;;7325038;19;162949;-14
2022/04/18 23:20:47;;;;;;;4.55;1.70;;;;;;;;;;7330804;19;154161;-14
2022/04/18 23:23:18;;;;;;;2.55;1.55;;;;;;;;;;7328741;19;154191;-15
2022/04/18 23:25:49;;;;;;;3.05;1.40;;;;;;;;;;7328738;19;162009;-14
2022/04/18 23:28:23;;;;;;;2.58;1.42;;;;;;;;;;7329840;19;162388;-14
2022/04/18 23:30:55;;;;;;;5.15;1.45;;;;;;;;;;7330243;19;154019;-14
2022/04/18 23:33:26;;;;;;;3.03;1.55;;;;;;;;;;7329735;19;153542;-13
2022/04/18 23:35:57;;;;;;;1.65;1.27;;;;;;;;;;7329506;19;162083;-14
2022/04/18 23:38:29;;;;;;;3.15;1.42;;;;;;;;;;7327800;19;162549;-14
2022/04/18 23:43:59;;;;;;;2.30;1.20;;;;;;;;;;7329713;19;153599;-14
2022/04/18 23:46:31;;;;;;;4.90;1.75;;;;;;;;;;7329670;19;161965;-14
2022/04/18 23:49:02;;;;;;;1.53;1.00;;;;;;;;;;7329692;19;162370;-13
2022/04/18 23:51:33;;;;;;;1.95;1.10;;;;;;;;;;7329671;19;154238;-13
2022/04/18 23:54:05;;;;;;;3.88;1.25;;;;;;;;;;7329585;19;153490;-14
2022/04/18 23:56:39;;;;;;;4.53;1.50;;;;;;;;;;7329205;19;161910;-14
2022/04/18 23:59:12;;;;;;;3.97;1.23;;;;;;;;;;7326920;19;162444;-13
